Forside
METAR-TAF:

METAR-TAF

Lufthavne :

Djibouti, Djibouti

Breddekreds: 11-33N, længdekreds: 043-10E, højde: 49 m

Aktuelle vejr

Denne rapport blev lavet for 1 time og 5 minutter siden, kl. 17:00 UTC
Vind stille
Temperatur 31°C
Fugtighed 71%
Tryk 1009 hPa
Sigt 10 km eller mere
ingen skyer under 1500m og ingen cumulonimbus

METAR: HDAM 151700Z 00000KT CAVOK 31/25 Q1009

Tid: 21:05 (18:05 UTC)

Vejrudsigter

Denne rapport blev lavet for 1 time og 5 minutter siden, kl. 17:00 UTC
Foreløbig gælder fra 15 på 18 UTC til 16 på 18 UTC
Vind 5 kt fra varierende retninger
Sigt 10 km eller mere
Nogle få skyer i en højde af 2000 ft
ændring
fra 16 på 00 UTC til 16 på 06 UTC
Vind kt fra nord
Spredte skyer i en højde af 2000 ft
ændring
fra 16 på 06 UTC til 16 på 12 UTC
Vind 10 kt fra øst
Spredte skyer i en højde af 2300 ft

TAF: HDAM 151700Z 1518/1618 VRB05KT 9999 FEW020 BECMG 1600/1606 00000KT SCT020 BECMG 1606/1612 08010KT SCT023

Vejrobservationer og prognoser fra mere end 4000 lufthavne (METAR og TAF).

De gule og røde prikker repræsenterer de meteorologiske stationer.

Flyt musen over at se navnet på stationen.

Så klik over at se vejr observationer og prognoser.

At skifte det kort: Klik på de grønne knapper med et sort kors for at zoome ind; på den grønne knap med en bindestreg for at zoome ud; eller på de grønne pile for tilstødende kort.


METAR-TAF: